sensor_id;sensor_type;location;lat;lon;timestamp;P1;durP1;ratioP1;P2;durP2;ratioP2
57225;SDS011;43082;43.568;22.256;2023-03-04T00:01:24;121.75;;;85.82;;
57225;SDS011;43082;43.568;22.256;2023-03-04T00:03:49;106.22;;;73.90;;
57225;SDS011;43082;43.568;22.256;2023-03-04T00:06:15;104.78;;;74.32;;
57225;SDS011;43082;43.568;22.256;2023-03-04T00:08:40;82.82;;;56.97;;
57225;SDS011;43082;43.568;22.256;2023-03-04T00:11:05;72.97;;;53.25;;
57225;SDS011;43082;43.568;22.256;2023-03-04T00:13:31;59.00;;;40.83;;
57225;SDS011;43082;43.568;22.256;2023-03-04T00:15:57;46.15;;;33.45;;
57225;SDS011;43082;43.568;22.256;2023-03-04T00:18:22;63.47;;;43.92;;
57225;SDS011;43082;43.568;22.256;2023-03-04T00:20:47;58.60;;;39.90;;
57225;SDS011;43082;43.568;22.256;2023-03-04T00:23:14;50.55;;;35.75;;
57225;SDS011;43082;43.568;22.256;2023-03-04T00:25:40;31.20;;;20.05;;
57225;SDS011;43082;43.568;22.256;2023-03-04T00:28:05;33.75;;;24.05;;
57225;SDS011;43082;43.568;22.256;2023-03-04T00:30:31;34.00;;;22.38;;
57225;SDS011;43082;43.568;22.256;2023-03-04T00:32:56;35.40;;;24.73;;
57225;SDS011;43082;43.568;22.256;2023-03-04T00:35:22;34.75;;;24.35;;
57225;SDS011;43082;43.568;22.256;2023-03-04T00:37:47;36.05;;;25.08;;
57225;SDS011;43082;43.568;22.256;2023-03-04T00:40:13;31.23;;;23.08;;
57225;SDS011;43082;43.568;22.256;2023-03-04T00:42:38;53.58;;;37.38;;
57225;SDS011;43082;43.568;22.256;2023-03-04T00:45:04;65.40;;;46.40;;
57225;SDS011;43082;43.568;22.256;2023-03-04T00:47:30;52.08;;;36.47;;
57225;SDS011;43082;43.568;22.256;2023-03-04T00:49:56;66.50;;;45.80;;
57225;SDS011;43082;43.568;22.256;2023-03-04T00:52:21;79.68;;;52.63;;
57225;SDS011;43082;43.568;22.256;2023-03-04T00:54:47;83.65;;;57.00;;
57225;SDS011;43082;43.568;22.256;2023-03-04T00:57:12;86.82;;;60.25;;
57225;SDS011;43082;43.568;22.256;2023-03-04T00:59:38;74.88;;;51.08;;
57225;SDS011;43082;43.568;22.256;2023-03-04T01:02:04;72.30;;;51.17;;
57225;SDS011;43082;43.568;22.256;2023-03-04T01:04:30;60.33;;;43.67;;
57225;SDS011;43082;43.568;22.256;2023-03-04T01:06:56;65.85;;;45.35;;
57225;SDS011;43082;43.568;22.256;2023-03-04T01:09:21;110.43;;;73.32;;
57225;SDS011;43082;43.568;22.256;2023-03-04T01:11:47;79.75;;;55.63;;
57225;SDS011;43082;43.568;22.256;2023-03-04T01:14:12;81.38;;;55.72;;
57225;SDS011;43082;43.568;22.256;2023-03-04T01:16:38;63.65;;;45.53;;
57225;SDS011;43082;43.568;22.256;2023-03-04T01:19:03;43.33;;;31.85;;
57225;SDS011;43082;43.568;22.256;2023-03-04T01:21:28;43.63;;;30.63;;
57225;SDS011;43082;43.568;22.256;2023-03-04T01:23:54;73.50;;;46.13;;
57225;SDS011;43082;43.568;22.256;2023-03-04T01:26:20;69.35;;;46.53;;
57225;SDS011;43082;43.568;22.256;2023-03-04T01:28:46;73.50;;;46.85;;
57225;SDS011;43082;43.568;22.256;2023-03-04T01:31:11;71.75;;;46.17;;
57225;SDS011;43082;43.568;22.256;2023-03-04T01:33:37;44.65;;;31.42;;
57225;SDS011;43082;43.568;22.256;2023-03-04T01:36:02;44.72;;;31.30;;
57225;SDS011;43082;43.568;22.256;2023-03-04T01:38:28;45.75;;;31.60;;
57225;SDS011;43082;43.568;22.256;2023-03-04T01:40:53;35.75;;;25.33;;
57225;SDS011;43082;43.568;22.256;2023-03-04T01:43:23;29.42;;;19.08;;
57225;SDS011;43082;43.568;22.256;2023-03-04T01:45:52;23.85;;;16.38;;
57225;SDS011;43082;43.568;22.256;2023-03-04T01:48:32;29.25;;;20.23;;
57225;SDS011;43082;43.568;22.256;2023-03-04T01:51:01;27.83;;;19.77;;
57225;SDS011;43082;43.568;22.256;2023-03-04T01:53:28;30.65;;;20.50;;
57225;SDS011;43082;43.568;22.256;2023-03-04T01:56:00;24.33;;;15.15;;
57225;SDS011;43082;43.568;22.256;2023-03-04T01:58:30;19.15;;;11.23;;
57225;SDS011;43082;43.568;22.256;2023-03-04T02:00:56;17.50;;;9.30;;
57225;SDS011;43082;43.568;22.256;2023-03-04T02:03:22;15.98;;;10.40;;
57225;SDS011;43082;43.568;22.256;2023-03-04T02:05:49;16.70;;;10.23;;
57225;SDS011;43082;43.568;22.256;2023-03-04T02:08:17;16.13;;;9.30;;
57225;SDS011;43082;43.568;22.256;2023-03-04T02:10:44;17.25;;;10.18;;
57225;SDS011;43082;43.568;22.256;2023-03-04T02:13:10;15.05;;;10.07;;
57225;SDS011;43082;43.568;22.256;2023-03-04T02:15:36;17.42;;;10.82;;
57225;SDS011;43082;43.568;22.256;2023-03-04T02:18:03;14.65;;;10.30;;
57225;SDS011;43082;43.568;22.256;2023-03-04T02:23:36;30.30;;;19.50;;
57225;SDS011;43082;43.568;22.256;2023-03-04T02:28:48;16.02;;;11.07;;
57225;SDS011;43082;43.568;22.256;2023-03-04T02:31:27;18.25;;;12.15;;
57225;SDS011;43082;43.568;22.256;2023-03-04T02:34:02;19.20;;;13.52;;
57225;SDS011;43082;43.568;22.256;2023-03-04T02:36:30;25.23;;;16.45;;
57225;SDS011;43082;43.568;22.256;2023-03-04T02:39:00;25.35;;;16.40;;
57225;SDS011;43082;43.568;22.256;2023-03-04T02:41:30;23.13;;;15.32;;
57225;SDS011;43082;43.568;22.256;2023-03-04T02:43:55;28.17;;;17.35;;
57225;SDS011;43082;43.568;22.256;2023-03-04T02:46:21;25.52;;;16.88;;
57225;SDS011;43082;43.568;22.256;2023-03-04T02:48:48;31.98;;;22.60;;
57225;SDS011;43082;43.568;22.256;2023-03-04T02:51:14;36.38;;;24.48;;
57225;SDS011;43082;43.568;22.256;2023-03-04T02:53:39;33.53;;;23.63;;
57225;SDS011;43082;43.568;22.256;2023-03-04T02:56:05;30.05;;;20.52;;
57225;SDS011;43082;43.568;22.256;2023-03-04T02:58:31;32.28;;;22.67;;
57225;SDS011;43082;43.568;22.256;2023-03-04T03:00:56;37.08;;;24.65;;
57225;SDS011;43082;43.568;22.256;2023-03-04T03:03:22;29.05;;;19.08;;
57225;SDS011;43082;43.568;22.256;2023-03-04T03:05:48;37.80;;;26.48;;
57225;SDS011;43082;43.568;22.256;2023-03-04T03:08:13;28.73;;;17.77;;
57225;SDS011;43082;43.568;22.256;2023-03-04T03:10:39;29.45;;;17.77;;
57225;SDS011;43082;43.568;22.256;2023-03-04T03:13:04;30.80;;;20.65;;
57225;SDS011;43082;43.568;22.256;2023-03-04T03:15:30;39.53;;;26.45;;
57225;SDS011;43082;43.568;22.256;2023-03-04T03:17:55;50.17;;;34.20;;
57225;SDS011;43082;43.568;22.256;2023-03-04T03:20:21;46.67;;;31.45;;
57225;SDS011;43082;43.568;22.256;2023-03-04T03:22:46;39.03;;;27.65;;
57225;SDS011;43082;43.568;22.256;2023-03-04T03:25:12;36.38;;;24.92;;
57225;SDS011;43082;43.568;22.256;2023-03-04T03:27:38;36.88;;;23.73;;
57225;SDS011;43082;43.568;22.256;2023-03-04T03:30:04;41.22;;;25.52;;
57225;SDS011;43082;43.568;22.256;2023-03-04T03:32:31;36.05;;;22.50;;
57225;SDS011;43082;43.568;22.256;2023-03-04T03:34:56;28.13;;;15.90;;
57225;SDS011;43082;43.568;22.256;2023-03-04T03:37:21;25.63;;;16.50;;
57225;SDS011;43082;43.568;22.256;2023-03-04T03:39:47;25.38;;;16.90;;
57225;SDS011;43082;43.568;22.256;2023-03-04T03:42:12;18.13;;;12.02;;
57225;SDS011;43082;43.568;22.256;2023-03-04T03:44:38;21.55;;;14.68;;
57225;SDS011;43082;43.568;22.256;2023-03-04T03:47:03;18.73;;;12.70;;
57225;SDS011;43082;43.568;22.256;2023-03-04T03:49:29;17.35;;;11.00;;
57225;SDS011;43082;43.568;22.256;2023-03-04T03:51:54;18.00;;;10.55;;
57225;SDS011;43082;43.568;22.256;2023-03-04T03:54:20;15.50;;;10.45;;
57225;SDS011;43082;43.568;22.256;2023-03-04T03:56:45;16.27;;;10.85;;
57225;SDS011;43082;43.568;22.256;2023-03-04T03:59:11;23.45;;;11.98;;
57225;SDS011;43082;43.568;22.256;2023-03-04T04:01:36;19.40;;;11.82;;
57225;SDS011;43082;43.568;22.256;2023-03-04T04:04:02;20.90;;;12.13;;
57225;SDS011;43082;43.568;22.256;2023-03-04T04:06:27;21.95;;;15.32;;
57225;SDS011;43082;43.568;22.256;2023-03-04T04:08:53;20.77;;;13.40;;
57225;SDS011;43082;43.568;22.256;2023-03-04T04:11:19;20.42;;;13.60;;
57225;SDS011;43082;43.568;22.256;2023-03-04T04:13:44;20.83;;;12.68;;
57225;SDS011;43082;43.568;22.256;2023-03-04T04:16:10;25.48;;;15.93;;
57225;SDS011;43082;43.568;22.256;2023-03-04T04:18:35;25.25;;;16.10;;
57225;SDS011;43082;43.568;22.256;2023-03-04T04:21:02;23.05;;;14.57;;
57225;SDS011;43082;43.568;22.256;2023-03-04T04:23:28;24.23;;;13.43;;
57225;SDS011;43082;43.568;22.256;2023-03-04T04:25:54;20.77;;;13.50;;
57225;SDS011;43082;43.568;22.256;2023-03-04T04:28:20;20.90;;;13.38;;
57225;SDS011;43082;43.568;22.256;2023-03-04T04:30:46;20.42;;;13.70;;
57225;SDS011;43082;43.568;22.256;2023-03-04T04:33:11;19.27;;;13.18;;
57225;SDS011;43082;43.568;22.256;2023-03-04T04:35:37;19.05;;;12.65;;
57225;SDS011;43082;43.568;22.256;2023-03-04T04:38:05;20.08;;;13.30;;
57225;SDS011;43082;43.568;22.256;2023-03-04T04:40:32;23.75;;;16.27;;
57225;SDS011;43082;43.568;22.256;2023-03-04T04:42:57;30.38;;;20.80;;
57225;SDS011;43082;43.568;22.256;2023-03-04T04:45:23;26.35;;;17.77;;
57225;SDS011;43082;43.568;22.256;2023-03-04T04:47:49;33.35;;;21.15;;
57225;SDS011;43082;43.568;22.256;2023-03-04T04:50:17;34.05;;;23.25;;
57225;SDS011;43082;43.568;22.256;2023-03-04T04:52:42;39.42;;;25.88;;
57225;SDS011;43082;43.568;22.256;2023-03-04T04:55:08;43.92;;;27.83;;
57225;SDS011;43082;43.568;22.256;2023-03-04T04:57:34;38.10;;;26.10;;
57225;SDS011;43082;43.568;22.256;2023-03-04T04:59:59;41.08;;;27.38;;
57225;SDS011;43082;43.568;22.256;2023-03-04T05:02:25;36.05;;;23.98;;
57225;SDS011;43082;43.568;22.256;2023-03-04T05:04:50;33.63;;;22.38;;
57225;SDS011;43082;43.568;22.256;2023-03-04T05:07:16;35.80;;;23.85;;
57225;SDS011;43082;43.568;22.256;2023-03-04T05:09:41;55.25;;;35.25;;
57225;SDS011;43082;43.568;22.256;2023-03-04T05:12:07;68.20;;;45.17;;
57225;SDS011;43082;43.568;22.256;2023-03-04T05:14:32;44.83;;;33.20;;
57225;SDS011;43082;43.568;22.256;2023-03-04T05:16:58;46.38;;;34.50;;
57225;SDS011;43082;43.568;22.256;2023-03-04T05:19:23;46.80;;;33.15;;
57225;SDS011;43082;43.568;22.256;2023-03-04T05:21:49;46.28;;;32.58;;
57225;SDS011;43082;43.568;22.256;2023-03-04T05:24:14;47.45;;;33.97;;
57225;SDS011;43082;43.568;22.256;2023-03-04T05:26:40;48.97;;;33.65;;
57225;SDS011;43082;43.568;22.256;2023-03-04T05:29:05;47.63;;;33.85;;
57225;SDS011;43082;43.568;22.256;2023-03-04T05:31:31;57.03;;;40.53;;
57225;SDS011;43082;43.568;22.256;2023-03-04T05:33:56;59.08;;;40.10;;
57225;SDS011;43082;43.568;22.256;2023-03-04T05:36:21;50.25;;;36.53;;
57225;SDS011;43082;43.568;22.256;2023-03-04T05:38:47;48.15;;;34.63;;
57225;SDS011;43082;43.568;22.256;2023-03-04T05:41:12;45.63;;;33.25;;
57225;SDS011;43082;43.568;22.256;2023-03-04T05:43:38;51.55;;;36.28;;
57225;SDS011;43082;43.568;22.256;2023-03-04T05:46:07;63.92;;;44.60;;
57225;SDS011;43082;43.568;22.256;2023-03-04T05:48:33;107.00;;;69.72;;
57225;SDS011;43082;43.568;22.256;2023-03-04T05:50:59;161.63;;;106.10;;
57225;SDS011;43082;43.568;22.256;2023-03-04T05:53:26;182.35;;;123.90;;
57225;SDS011;43082;43.568;22.256;2023-03-04T05:55:51;178.50;;;126.35;;
57225;SDS011;43082;43.568;22.256;2023-03-04T05:58:18;146.65;;;103.60;;
57225;SDS011;43082;43.568;22.256;2023-03-04T06:00:43;124.75;;;89.43;;
57225;SDS011;43082;43.568;22.256;2023-03-04T06:03:19;98.13;;;70.07;;
57225;SDS011;43082;43.568;22.256;2023-03-04T06:05:46;102.72;;;72.22;;
57225;SDS011;43082;43.568;22.256;2023-03-04T06:08:12;108.57;;;75.60;;
57225;SDS011;43082;43.568;22.256;2023-03-04T06:10:38;120.85;;;87.10;;
57225;SDS011;43082;43.568;22.256;2023-03-04T06:13:04;65.93;;;48.15;;
57225;SDS011;43082;43.568;22.256;2023-03-04T06:15:30;80.07;;;55.88;;
57225;SDS011;43082;43.568;22.256;2023-03-04T06:17:56;84.68;;;60.03;;
57225;SDS011;43082;43.568;22.256;2023-03-04T06:20:21;94.72;;;65.68;;
57225;SDS011;43082;43.568;22.256;2023-03-04T06:22:47;99.63;;;68.13;;
57225;SDS011;43082;43.568;22.256;2023-03-04T06:25:12;111.38;;;72.45;;
57225;SDS011;43082;43.568;22.256;2023-03-04T06:27:37;100.30;;;65.60;;
57225;SDS011;43082;43.568;22.256;2023-03-04T06:30:03;88.32;;;58.75;;
57225;SDS011;43082;43.568;22.256;2023-03-04T06:32:29;126.72;;;85.35;;
57225;SDS011;43082;43.568;22.256;2023-03-04T06:34:54;131.18;;;88.63;;
57225;SDS011;43082;43.568;22.256;2023-03-04T06:37:19;124.35;;;86.32;;
57225;SDS011;43082;43.568;22.256;2023-03-04T06:39:45;103.07;;;70.10;;
57225;SDS011;43082;43.568;22.256;2023-03-04T06:42:11;96.07;;;66.82;;
57225;SDS011;43082;43.568;22.256;2023-03-04T06:44:36;75.97;;;54.60;;
57225;SDS011;43082;43.568;22.256;2023-03-04T06:47:02;82.53;;;53.20;;
57225;SDS011;43082;43.568;22.256;2023-03-04T06:49:27;64.60;;;48.85;;
57225;SDS011;43082;43.568;22.256;2023-03-04T06:51:53;62.13;;;45.40;;
57225;SDS011;43082;43.568;22.256;2023-03-04T06:54:18;47.53;;;35.75;;
57225;SDS011;43082;43.568;22.256;2023-03-04T06:56:44;61.40;;;43.30;;
57225;SDS011;43082;43.568;22.256;2023-03-04T06:59:09;53.38;;;37.92;;
57225;SDS011;43082;43.568;22.256;2023-03-04T07:01:34;52.22;;;36.63;;
57225;SDS011;43082;43.568;22.256;2023-03-04T07:04:00;50.53;;;34.58;;
57225;SDS011;43082;43.568;22.256;2023-03-04T07:06:26;63.22;;;45.67;;
57225;SDS011;43082;43.568;22.256;2023-03-04T07:08:52;57.17;;;41.95;;
57225;SDS011;43082;43.568;22.256;2023-03-04T07:11:18;53.28;;;39.85;;
57225;SDS011;43082;43.568;22.256;2023-03-04T07:13:44;57.83;;;42.35;;
57225;SDS011;43082;43.568;22.256;2023-03-04T07:16:11;63.72;;;44.30;;
57225;SDS011;43082;43.568;22.256;2023-03-04T07:18:38;54.53;;;39.70;;
57225;SDS011;43082;43.568;22.256;2023-03-04T07:21:04;56.10;;;39.55;;
57225;SDS011;43082;43.568;22.256;2023-03-04T07:23:30;62.05;;;45.17;;
57225;SDS011;43082;43.568;22.256;2023-03-04T07:25:56;59.53;;;43.78;;
57225;SDS011;43082;43.568;22.256;2023-03-04T07:28:21;55.25;;;40.45;;
57225;SDS011;43082;43.568;22.256;2023-03-04T07:30:47;61.63;;;45.90;;
57225;SDS011;43082;43.568;22.256;2023-03-04T07:33:13;59.72;;;44.97;;
57225;SDS011;43082;43.568;22.256;2023-03-04T07:35:38;62.10;;;44.95;;
57225;SDS011;43082;43.568;22.256;2023-03-04T07:38:04;64.00;;;44.42;;
57225;SDS011;43082;43.568;22.256;2023-03-04T07:40:30;71.53;;;51.35;;
57225;SDS011;43082;43.568;22.256;2023-03-04T07:42:55;95.38;;;67.85;;
57225;SDS011;43082;43.568;22.256;2023-03-04T07:45:21;96.28;;;71.10;;
57225;SDS011;43082;43.568;22.256;2023-03-04T07:47:47;103.03;;;74.40;;
57225;SDS011;43082;43.568;22.256;2023-03-04T07:50:13;88.38;;;64.78;;
57225;SDS011;43082;43.568;22.256;2023-03-04T07:52:43;62.63;;;46.33;;
57225;SDS011;43082;43.568;22.256;2023-03-04T07:55:11;66.45;;;48.83;;
57225;SDS011;43082;43.568;22.256;2023-03-04T07:57:38;91.65;;;64.75;;
57225;SDS011;43082;43.568;22.256;2023-03-04T08:00:04;71.40;;;49.15;;
57225;SDS011;43082;43.568;22.256;2023-03-04T08:02:29;54.83;;;39.80;;
57225;SDS011;43082;43.568;22.256;2023-03-04T08:04:55;60.90;;;43.88;;
57225;SDS011;43082;43.568;22.256;2023-03-04T08:07:20;58.83;;;43.22;;
57225;SDS011;43082;43.568;22.256;2023-03-04T08:09:47;57.03;;;41.70;;
57225;SDS011;43082;43.568;22.256;2023-03-04T08:12:12;45.85;;;34.03;;
57225;SDS011;43082;43.568;22.256;2023-03-04T08:14:38;45.95;;;32.90;;
57225;SDS011;43082;43.568;22.256;2023-03-04T08:17:03;36.80;;;25.90;;
57225;SDS011;43082;43.568;22.256;2023-03-04T08:19:28;45.28;;;33.58;;
57225;SDS011;43082;43.568;22.256;2023-03-04T08:21:54;34.65;;;24.52;;
57225;SDS011;43082;43.568;22.256;2023-03-04T08:24:19;33.60;;;24.67;;
57225;SDS011;43082;43.568;22.256;2023-03-04T08:26:45;31.27;;;24.23;;
57225;SDS011;43082;43.568;22.256;2023-03-04T08:29:14;28.70;;;21.45;;
57225;SDS011;43082;43.568;22.256;2023-03-04T08:31:42;32.17;;;25.23;;
57225;SDS011;43082;43.568;22.256;2023-03-04T08:34:10;36.45;;;27.35;;
57225;SDS011;43082;43.568;22.256;2023-03-04T08:36:37;38.00;;;29.63;;
57225;SDS011;43082;43.568;22.256;2023-03-04T08:39:03;36.40;;;27.10;;
57225;SDS011;43082;43.568;22.256;2023-03-04T08:41:30;37.05;;;25.75;;
57225;SDS011;43082;43.568;22.256;2023-03-04T08:43:56;33.17;;;23.98;;
57225;SDS011;43082;43.568;22.256;2023-03-04T08:46:21;34.05;;;24.85;;
57225;SDS011;43082;43.568;22.256;2023-03-04T08:48:46;29.73;;;21.98;;
57225;SDS011;43082;43.568;22.256;2023-03-04T08:51:13;29.20;;;22.10;;
57225;SDS011;43082;43.568;22.256;2023-03-04T08:53:39;36.50;;;25.48;;
57225;SDS011;43082;43.568;22.256;2023-03-04T08:56:05;35.50;;;26.80;;
57225;SDS011;43082;43.568;22.256;2023-03-04T08:58:31;36.00;;;25.88;;
57225;SDS011;43082;43.568;22.256;2023-03-04T09:00:57;36.83;;;26.25;;
57225;SDS011;43082;43.568;22.256;2023-03-04T09:03:23;35.97;;;26.92;;
57225;SDS011;43082;43.568;22.256;2023-03-04T09:05:49;35.65;;;26.50;;
57225;SDS011;43082;43.568;22.256;2023-03-04T09:08:15;38.67;;;29.05;;
57225;SDS011;43082;43.568;22.256;2023-03-04T09:10:40;35.00;;;26.77;;
57225;SDS011;43082;43.568;22.256;2023-03-04T09:13:06;38.03;;;28.92;;
57225;SDS011;43082;43.568;22.256;2023-03-04T09:15:32;25.88;;;19.48;;
57225;SDS011;43082;43.568;22.256;2023-03-04T09:18:03;26.52;;;19.27;;
57225;SDS011;43082;43.568;22.256;2023-03-04T09:20:30;26.02;;;19.48;;
57225;SDS011;43082;43.568;22.256;2023-03-04T09:22:55;30.17;;;21.88;;
57225;SDS011;43082;43.568;22.256;2023-03-04T09:25:21;30.13;;;22.23;;
57225;SDS011;43082;43.568;22.256;2023-03-04T09:27:46;36.78;;;24.15;;
57225;SDS011;43082;43.568;22.256;2023-03-04T09:30:12;25.63;;;17.58;;
57225;SDS011;43082;43.568;22.256;2023-03-04T09:32:37;24.45;;;18.02;;
57225;SDS011;43082;43.568;22.256;2023-03-04T09:35:04;24.50;;;16.33;;
57225;SDS011;43082;43.568;22.256;2023-03-04T09:37:29;27.45;;;20.02;;
57225;SDS011;43082;43.568;22.256;2023-03-04T09:39:55;20.55;;;15.30;;
57225;SDS011;43082;43.568;22.256;2023-03-04T09:42:24;33.72;;;24.75;;
57225;SDS011;43082;43.568;22.256;2023-03-04T09:44:52;32.67;;;24.73;;
57225;SDS011;43082;43.568;22.256;2023-03-04T09:47:19;28.00;;;19.13;;
57225;SDS011;43082;43.568;22.256;2023-03-04T09:49:48;25.92;;;18.33;;
57225;SDS011;43082;43.568;22.256;2023-03-04T09:55:14;27.30;;;19.42;;
57225;SDS011;43082;43.568;22.256;2023-03-04T09:57:52;31.70;;;22.83;;
57225;SDS011;43082;43.568;22.256;2023-03-04T10:00:45;29.65;;;22.65;;
57225;SDS011;43082;43.568;22.256;2023-03-04T10:03:20;20.65;;;15.32;;
57225;SDS011;43082;43.568;22.256;2023-03-04T10:05:53;28.55;;;19.98;;
57225;SDS011;43082;43.568;22.256;2023-03-04T10:11:26;26.95;;;18.63;;
57225;SDS011;43082;43.568;22.256;2023-03-04T10:16:59;25.25;;;15.65;;
57225;SDS011;43082;43.568;22.256;2023-03-04T10:21:53;21.40;;;14.40;;
57225;SDS011;43082;43.568;22.256;2023-03-04T10:24:20;22.25;;;13.90;;
57225;SDS011;43082;43.568;22.256;2023-03-04T10:27:20;21.58;;;14.43;;
57225;SDS011;43082;43.568;22.256;2023-03-04T10:29:39;22.95;;;14.85;;
57225;SDS011;43082;43.568;22.256;2023-03-04T10:32:06;27.35;;;20.20;;
57225;SDS011;43082;43.568;22.256;2023-03-04T10:34:35;21.50;;;12.88;;
57225;SDS011;43082;43.568;22.256;2023-03-04T10:37:02;18.30;;;12.25;;
57225;SDS011;43082;43.568;22.256;2023-03-04T10:39:33;21.02;;;13.38;;
57225;SDS011;43082;43.568;22.256;2023-03-04T10:42:05;19.77;;;13.18;;
57225;SDS011;43082;43.568;22.256;2023-03-04T10:44:41;24.33;;;17.33;;
57225;SDS011;43082;43.568;22.256;2023-03-04T10:47:19;23.83;;;15.82;;
57225;SDS011;43082;43.568;22.256;2023-03-04T10:49:54;23.05;;;15.40;;
57225;SDS011;43082;43.568;22.256;2023-03-04T10:55:23;31.52;;;21.13;;
57225;SDS011;43082;43.568;22.256;2023-03-04T10:57:51;27.85;;;19.20;;
57225;SDS011;43082;43.568;22.256;2023-03-04T11:00:27;115.35;;;83.15;;
57225;SDS011;43082;43.568;22.256;2023-03-04T11:03:16;35.22;;;26.15;;
57225;SDS011;43082;43.568;22.256;2023-03-04T11:05:45;54.42;;;46.38;;
57225;SDS011;43082;43.568;22.256;2023-03-04T11:08:18;65.28;;;43.83;;
57225;SDS011;43082;43.568;22.256;2023-03-04T11:10:47;37.88;;;25.67;;
57225;SDS011;43082;43.568;22.256;2023-03-04T11:13:21;38.60;;;24.60;;
57225;SDS011;43082;43.568;22.256;2023-03-04T11:18:18;23.88;;;15.88;;
57225;SDS011;43082;43.568;22.256;2023-03-04T11:20:47;22.50;;;13.32;;
57225;SDS011;43082;43.568;22.256;2023-03-04T11:25:47;25.17;;;16.23;;
57225;SDS011;43082;43.568;22.256;2023-03-04T11:30:50;21.55;;;14.13;;
57225;SDS011;43082;43.568;22.256;2023-03-04T11:36:05;24.45;;;15.15;;
57225;SDS011;43082;43.568;22.256;2023-03-04T11:38:37;30.92;;;17.77;;
57225;SDS011;43082;43.568;22.256;2023-03-04T11:41:09;23.52;;;15.52;;
57225;SDS011;43082;43.568;22.256;2023-03-04T11:43:38;26.70;;;15.00;;
57225;SDS011;43082;43.568;22.256;2023-03-04T11:57:34;32.85;;;19.63;;
57225;SDS011;43082;43.568;22.256;2023-03-04T12:17:03;25.90;;;13.63;;
57225;SDS011;43082;43.568;22.256;2023-03-04T12:22:12;26.50;;;17.15;;
57225;SDS011;43082;43.568;22.256;2023-03-04T12:30:39;24.13;;;15.15;;
57225;SDS011;43082;43.568;22.256;2023-03-04T12:33:11;23.77;;;14.43;;
57225;SDS011;43082;43.568;22.256;2023-03-04T12:36:18;35.65;;;20.90;;
57225;SDS011;43082;43.568;22.256;2023-03-04T12:41:54;44.33;;;31.73;;
57225;SDS011;43082;43.568;22.256;2023-03-04T12:44:52;35.63;;;21.20;;
57225;SDS011;43082;43.568;22.256;2023-03-04T12:55:49;32.22;;;20.65;;
57225;SDS011;43082;43.568;22.256;2023-03-04T12:58:18;59.10;;;38.95;;
57225;SDS011;43082;43.568;22.256;2023-03-04T13:00:48;57.08;;;38.95;;
57225;SDS011;43082;43.568;22.256;2023-03-04T13:08:44;39.78;;;27.23;;
57225;SDS011;43082;43.568;22.256;2023-03-04T13:14:05;32.72;;;22.58;;
57225;SDS011;43082;43.568;22.256;2023-03-04T13:16:48;33.85;;;18.60;;
57225;SDS011;43082;43.568;22.256;2023-03-04T13:33:38;44.78;;;27.27;;
57225;SDS011;43082;43.568;22.256;2023-03-04T13:48:42;33.55;;;19.75;;
57225;SDS011;43082;43.568;22.256;2023-03-04T13:51:29;26.65;;;18.90;;
57225;SDS011;43082;43.568;22.256;2023-03-04T14:01:55;31.70;;;19.55;;
57225;SDS011;43082;43.568;22.256;2023-03-04T14:07:00;30.88;;;18.30;;
57225;SDS011;43082;43.568;22.256;2023-03-04T14:11:57;30.83;;;17.77;;
57225;SDS011;43082;43.568;22.256;2023-03-04T14:14:27;28.92;;;17.45;;
57225;SDS011;43082;43.568;22.256;2023-03-04T14:16:56;32.03;;;19.52;;
57225;SDS011;43082;43.568;22.256;2023-03-04T14:19:25;34.22;;;18.77;;
57225;SDS011;43082;43.568;22.256;2023-03-04T14:21:50;31.33;;;16.90;;
57225;SDS011;43082;43.568;22.256;2023-03-04T14:24:16;30.35;;;15.23;;
57225;SDS011;43082;43.568;22.256;2023-03-04T14:26:43;27.58;;;17.25;;
57225;SDS011;43082;43.568;22.256;2023-03-04T14:31:51;34.92;;;22.10;;
57225;SDS011;43082;43.568;22.256;2023-03-04T14:34:21;33.25;;;21.75;;
57225;SDS011;43082;43.568;22.256;2023-03-04T14:36:48;27.40;;;19.98;;
57225;SDS011;43082;43.568;22.256;2023-03-04T14:39:17;33.13;;;21.67;;
57225;SDS011;43082;43.568;22.256;2023-03-04T14:41:43;34.72;;;20.38;;
57225;SDS011;43082;43.568;22.256;2023-03-04T14:46:47;36.10;;;22.15;;
57225;SDS011;43082;43.568;22.256;2023-03-04T14:49:13;38.10;;;26.75;;
57225;SDS011;43082;43.568;22.256;2023-03-04T14:51:41;38.55;;;25.00;;
57225;SDS011;43082;43.568;22.256;2023-03-04T14:54:22;32.42;;;22.08;;
57225;SDS011;43082;43.568;22.256;2023-03-04T14:56:49;36.03;;;25.52;;
57225;SDS011;43082;43.568;22.256;2023-03-04T14:59:15;33.38;;;22.15;;
57225;SDS011;43082;43.568;22.256;2023-03-04T15:01:40;30.63;;;20.65;;
57225;SDS011;43082;43.568;22.256;2023-03-04T15:04:06;30.85;;;21.33;;
57225;SDS011;43082;43.568;22.256;2023-03-04T15:06:33;35.50;;;23.92;;
57225;SDS011;43082;43.568;22.256;2023-03-04T15:11:59;43.70;;;32.28;;
57225;SDS011;43082;43.568;22.256;2023-03-04T15:19:57;94.68;;;58.33;;
57225;SDS011;43082;43.568;22.256;2023-03-04T15:22:24;221.00;;;123.97;;
57225;SDS011;43082;43.568;22.256;2023-03-04T15:24:49;136.90;;;78.05;;
57225;SDS011;43082;43.568;22.256;2023-03-04T15:27:15;71.15;;;44.53;;
57225;SDS011;43082;43.568;22.256;2023-03-04T15:29:41;90.28;;;59.55;;
57225;SDS011;43082;43.568;22.256;2023-03-04T15:32:08;47.53;;;30.92;;
57225;SDS011;43082;43.568;22.256;2023-03-04T15:34:33;42.63;;;29.98;;
57225;SDS011;43082;43.568;22.256;2023-03-04T15:36:59;50.78;;;36.58;;
57225;SDS011;43082;43.568;22.256;2023-03-04T15:39:24;61.55;;;37.10;;
57225;SDS011;43082;43.568;22.256;2023-03-04T15:41:51;39.15;;;27.17;;
57225;SDS011;43082;43.568;22.256;2023-03-04T15:44:17;39.08;;;25.35;;
57225;SDS011;43082;43.568;22.256;2023-03-04T15:46:42;32.53;;;19.65;;
57225;SDS011;43082;43.568;22.256;2023-03-04T15:49:07;39.25;;;24.92;;
57225;SDS011;43082;43.568;22.256;2023-03-04T15:51:33;52.83;;;34.05;;
57225;SDS011;43082;43.568;22.256;2023-03-04T15:53:59;44.58;;;31.35;;
57225;SDS011;43082;43.568;22.256;2023-03-04T15:56:26;32.17;;;21.90;;
57225;SDS011;43082;43.568;22.256;2023-03-04T15:58:54;44.35;;;29.02;;
57225;SDS011;43082;43.568;22.256;2023-03-04T16:01:21;37.90;;;23.48;;
57225;SDS011;43082;43.568;22.256;2023-03-04T16:03:47;30.77;;;20.13;;
57225;SDS011;43082;43.568;22.256;2023-03-04T16:06:13;29.13;;;19.65;;
57225;SDS011;43082;43.568;22.256;2023-03-04T16:08:39;37.60;;;23.50;;
57225;SDS011;43082;43.568;22.256;2023-03-04T16:11:06;34.85;;;23.35;;
57225;SDS011;43082;43.568;22.256;2023-03-04T16:13:37;41.60;;;25.42;;
57225;SDS011;43082;43.568;22.256;2023-03-04T16:16:03;37.58;;;22.25;;
57225;SDS011;43082;43.568;22.256;2023-03-04T16:18:28;32.35;;;20.40;;
57225;SDS011;43082;43.568;22.256;2023-03-04T16:20:55;32.38;;;20.73;;
57225;SDS011;43082;43.568;22.256;2023-03-04T16:23:21;51.90;;;26.60;;
57225;SDS011;43082;43.568;22.256;2023-03-04T16:25:48;42.15;;;24.88;;
57225;SDS011;43082;43.568;22.256;2023-03-04T16:28:15;38.60;;;22.27;;
57225;SDS011;43082;43.568;22.256;2023-03-04T16:30:41;36.15;;;21.58;;